sensor_id;sensor_type;location;lat;lon;timestamp;temperature;humidity
21275;DHT22;36472;52.170;20.884;2023-12-20T00:01:40;28.40;40.90
21275;DHT22;36472;52.170;20.884;2023-12-20T00:04:10;28.30;40.90
21275;DHT22;36472;52.170;20.884;2023-12-20T00:06:39;28.30;40.90
21275;DHT22;36472;52.170;20.884;2023-12-20T00:09:08;28.30;41.10
21275;DHT22;36472;52.170;20.884;2023-12-20T00:11:38;28.30;41.10
21275;DHT22;36472;52.170;20.884;2023-12-20T00:14:09;28.30;41.20
21275;DHT22;36472;52.170;20.884;2023-12-20T00:16:38;28.40;41.20
21275;DHT22;36472;52.170;20.884;2023-12-20T00:19:07;28.40;41.10
21275;DHT22;36472;52.170;20.884;2023-12-20T00:21:36;28.40;41.10
21275;DHT22;36472;52.170;20.884;2023-12-20T00:24:05;28.50;41.10
21275;DHT22;36472;52.170;20.884;2023-12-20T00:26:35;28.50;41.10
21275;DHT22;36472;52.170;20.884;2023-12-20T00:29:05;28.50;41.00
21275;DHT22;36472;52.170;20.884;2023-12-20T00:31:34;28.50;41.00
21275;DHT22;36472;52.170;20.884;2023-12-20T00:34:03;28.50;41.10
21275;DHT22;36472;52.170;20.884;2023-12-20T00:36:32;28.50;41.00
21275;DHT22;36472;52.170;20.884;2023-12-20T00:39:01;28.50;41.00
21275;DHT22;36472;52.170;20.884;2023-12-20T00:41:31;28.50;41.00
21275;DHT22;36472;52.170;20.884;2023-12-20T00:43:59;28.50;41.10
21275;DHT22;36472;52.170;20.884;2023-12-20T00:46:30;28.50;41.00
21275;DHT22;36472;52.170;20.884;2023-12-20T00:48:59;28.40;41.10
21275;DHT22;36472;52.170;20.884;2023-12-20T00:51:28;28.50;41.20
21275;DHT22;36472;52.170;20.884;2023-12-20T00:53:56;28.40;41.00
21275;DHT22;36472;52.170;20.884;2023-12-20T00:56:26;28.30;41.20
21275;DHT22;36472;52.170;20.884;2023-12-20T00:58:54;28.40;41.20
21275;DHT22;36472;52.170;20.884;2023-12-20T01:01:23;28.50;41.30
21275;DHT22;36472;52.170;20.884;2023-12-20T01:03:54;28.50;41.20
21275;DHT22;36472;52.170;20.884;2023-12-20T01:06:23;28.50;41.20
21275;DHT22;36472;52.170;20.884;2023-12-20T01:08:52;28.40;41.00
21275;DHT22;36472;52.170;20.884;2023-12-20T01:11:21;28.40;41.10
21275;DHT22;36472;52.170;20.884;2023-12-20T01:13:50;28.40;41.30
21275;DHT22;36472;52.170;20.884;2023-12-20T01:16:19;28.50;41.20
21275;DHT22;36472;52.170;20.884;2023-12-20T01:18:48;28.30;41.00
21275;DHT22;36472;52.170;20.884;2023-12-20T01:21:18;28.40;41.30
21275;DHT22;36472;52.170;20.884;2023-12-20T01:23:47;28.50;41.30
21275;DHT22;36472;52.170;20.884;2023-12-20T01:26:16;28.50;41.20
21275;DHT22;36472;52.170;20.884;2023-12-20T01:28:45;28.50;41.10
21275;DHT22;36472;52.170;20.884;2023-12-20T01:31:14;28.50;41.10
21275;DHT22;36472;52.170;20.884;2023-12-20T01:33:43;28.50;41.00
21275;DHT22;36472;52.170;20.884;2023-12-20T01:36:12;28.50;41.20
21275;DHT22;36472;52.170;20.884;2023-12-20T01:38:43;28.50;41.10
21275;DHT22;36472;52.170;20.884;2023-12-20T01:41:12;28.50;41.20
21275;DHT22;36472;52.170;20.884;2023-12-20T01:43:41;28.50;41.10
21275;DHT22;36472;52.170;20.884;2023-12-20T01:46:18;28.50;41.20
21275;DHT22;36472;52.170;20.884;2023-12-20T01:48:48;28.50;41.10
21275;DHT22;36472;52.170;20.884;2023-12-20T01:51:18;28.50;40.90
21275;DHT22;36472;52.170;20.884;2023-12-20T01:53:49;28.50;40.90
21275;DHT22;36472;52.170;20.884;2023-12-20T01:56:18;28.50;40.90
21275;DHT22;36472;52.170;20.884;2023-12-20T01:58:49;28.50;41.00
21275;DHT22;36472;52.170;20.884;2023-12-20T02:01:18;28.60;41.00
21275;DHT22;36472;52.170;20.884;2023-12-20T02:03:48;28.50;41.00
21275;DHT22;36472;52.170;20.884;2023-12-20T02:06:18;28.60;41.00
21275;DHT22;36472;52.170;20.884;2023-12-20T02:08:51;28.60;41.00
21275;DHT22;36472;52.170;20.884;2023-12-20T02:11:21;28.60;40.90
21275;DHT22;36472;52.170;20.884;2023-12-20T02:13:49;28.60;41.10
21275;DHT22;36472;52.170;20.884;2023-12-20T02:16:18;28.60;40.90
21275;DHT22;36472;52.170;20.884;2023-12-20T02:18:48;28.60;40.80
21275;DHT22;36472;52.170;20.884;2023-12-20T02:21:24;28.60;40.80
21275;DHT22;36472;52.170;20.884;2023-12-20T02:23:53;28.50;40.80
21275;DHT22;36472;52.170;20.884;2023-12-20T02:26:23;28.40;40.80
21275;DHT22;36472;52.170;20.884;2023-12-20T02:28:52;28.40;40.80
21275;DHT22;36472;52.170;20.884;2023-12-20T02:31:22;28.50;41.10
21275;DHT22;36472;52.170;20.884;2023-12-20T02:33:52;28.40;41.00
21275;DHT22;36472;52.170;20.884;2023-12-20T02:36:21;28.50;41.10
21275;DHT22;36472;52.170;20.884;2023-12-20T02:38:51;28.40;40.80
21275;DHT22;36472;52.170;20.884;2023-12-20T02:41:20;28.30;40.80
21275;DHT22;36472;52.170;20.884;2023-12-20T02:43:49;28.40;41.00
21275;DHT22;36472;52.170;20.884;2023-12-20T02:46:18;28.30;41.00
21275;DHT22;36472;52.170;20.884;2023-12-20T02:48:47;28.30;41.10
21275;DHT22;36472;52.170;20.884;2023-12-20T02:51:16;28.30;41.10
21275;DHT22;36472;52.170;20.884;2023-12-20T02:53:45;28.40;41.00
21275;DHT22;36472;52.170;20.884;2023-12-20T02:56:15;28.40;41.00
21275;DHT22;36472;52.170;20.884;2023-12-20T02:58:44;28.40;41.10
21275;DHT22;36472;52.170;20.884;2023-12-20T03:01:14;28.50;41.00
21275;DHT22;36472;52.170;20.884;2023-12-20T03:03:43;28.50;41.00
21275;DHT22;36472;52.170;20.884;2023-12-20T03:06:16;28.40;41.00
21275;DHT22;36472;52.170;20.884;2023-12-20T03:08:46;28.50;41.00
21275;DHT22;36472;52.170;20.884;2023-12-20T03:11:17;28.40;40.90
21275;DHT22;36472;52.170;20.884;2023-12-20T03:13:46;28.30;40.90
21275;DHT22;36472;52.170;20.884;2023-12-20T03:16:15;28.30;41.10
21275;DHT22;36472;52.170;20.884;2023-12-20T03:18:44;28.30;40.90
21275;DHT22;36472;52.170;20.884;2023-12-20T03:21:13;28.40;41.00
21275;DHT22;36472;52.170;20.884;2023-12-20T03:23:42;28.50;41.10
21275;DHT22;36472;52.170;20.884;2023-12-20T03:26:11;28.50;40.90
21275;DHT22;36472;52.170;20.884;2023-12-20T03:28:42;28.50;41.00
21275;DHT22;36472;52.170;20.884;2023-12-20T03:31:11;28.50;40.90
21275;DHT22;36472;52.170;20.884;2023-12-20T03:33:40;28.50;40.80
21275;DHT22;36472;52.170;20.884;2023-12-20T03:36:09;28.60;41.00
21275;DHT22;36472;52.170;20.884;2023-12-20T03:38:38;28.60;40.90
21275;DHT22;36472;52.170;20.884;2023-12-20T03:41:07;28.40;40.80
21275;DHT22;36472;52.170;20.884;2023-12-20T03:43:36;28.50;40.90
21275;DHT22;36472;52.170;20.884;2023-12-20T03:46:07;28.50;40.90
21275;DHT22;36472;52.170;20.884;2023-12-20T03:48:36;28.40;40.80
21275;DHT22;36472;52.170;20.884;2023-12-20T03:51:06;28.50;40.90
21275;DHT22;36472;52.170;20.884;2023-12-20T03:53:34;28.50;40.90
21275;DHT22;36472;52.170;20.884;2023-12-20T03:56:04;28.50;40.80
21275;DHT22;36472;52.170;20.884;2023-12-20T03:58:33;28.50;40.70
21275;DHT22;36472;52.170;20.884;2023-12-20T04:01:03;28.50;40.80
21275;DHT22;36472;52.170;20.884;2023-12-20T04:03:33;28.60;40.80
21275;DHT22;36472;52.170;20.884;2023-12-20T04:06:02;28.60;40.80
21275;DHT22;36472;52.170;20.884;2023-12-20T04:08:31;28.60;40.80
21275;DHT22;36472;52.170;20.884;2023-12-20T04:11:00;28.60;40.70
21275;DHT22;36472;52.170;20.884;2023-12-20T04:13:29;28.60;40.80
21275;DHT22;36472;52.170;20.884;2023-12-20T04:15:58;28.60;40.80
21275;DHT22;36472;52.170;20.884;2023-12-20T04:18:27;28.70;40.80
21275;DHT22;36472;52.170;20.884;2023-12-20T04:20:58;28.70;40.80
21275;DHT22;36472;52.170;20.884;2023-12-20T04:23:27;28.70;40.70
21275;DHT22;36472;52.170;20.884;2023-12-20T04:25:56;28.70;40.80
21275;DHT22;36472;52.170;20.884;2023-12-20T04:28:24;28.60;40.80
21275;DHT22;36472;52.170;20.884;2023-12-20T04:30:54;28.60;40.80
21275;DHT22;36472;52.170;20.884;2023-12-20T04:33:23;28.70;40.70
21275;DHT22;36472;52.170;20.884;2023-12-20T04:35:52;28.70;40.70
21275;DHT22;36472;52.170;20.884;2023-12-20T04:38:22;28.60;40.70
21275;DHT22;36472;52.170;20.884;2023-12-20T04:40:51;28.60;40.70
21275;DHT22;36472;52.170;20.884;2023-12-20T04:43:20;28.60;40.70
21275;DHT22;36472;52.170;20.884;2023-12-20T04:45:49;28.30;40.80
21275;DHT22;36472;52.170;20.884;2023-12-20T04:48:18;28.50;41.10
21275;DHT22;36472;52.170;20.884;2023-12-20T04:50:47;28.50;40.90
21275;DHT22;36472;52.170;20.884;2023-12-20T04:53:16;28.50;41.00
21275;DHT22;36472;52.170;20.884;2023-12-20T04:55:46;28.50;40.90
21275;DHT22;36472;52.170;20.884;2023-12-20T04:58:15;28.50;41.10
21275;DHT22;36472;52.170;20.884;2023-12-20T05:00:45;28.50;41.00
21275;DHT22;36472;52.170;20.884;2023-12-20T05:03:14;28.50;40.80
21275;DHT22;36472;52.170;20.884;2023-12-20T05:05:43;28.60;40.90
21275;DHT22;36472;52.170;20.884;2023-12-20T05:12:46;28.60;40.90
21275;DHT22;36472;52.170;20.884;2023-12-20T05:15:14;28.60;40.80
21275;DHT22;36472;52.170;20.884;2023-12-20T05:17:43;28.50;40.90
21275;DHT22;36472;52.170;20.884;2023-12-20T05:20:13;28.50;40.90
21275;DHT22;36472;52.170;20.884;2023-12-20T05:22:42;28.60;40.90
21275;DHT22;36472;52.170;20.884;2023-12-20T05:25:12;28.60;40.80
21275;DHT22;36472;52.170;20.884;2023-12-20T05:27:41;28.60;40.90
21275;DHT22;36472;52.170;20.884;2023-12-20T05:30:12;28.60;40.90
21275;DHT22;36472;52.170;20.884;2023-12-20T05:32:42;28.60;40.80
21275;DHT22;36472;52.170;20.884;2023-12-20T05:35:11;28.60;40.80
21275;DHT22;36472;52.170;20.884;2023-12-20T05:37:40;28.60;40.80
21275;DHT22;36472;52.170;20.884;2023-12-20T05:40:10;28.60;40.70
21275;DHT22;36472;52.170;20.884;2023-12-20T05:42:40;28.60;40.60
21275;DHT22;36472;52.170;20.884;2023-12-20T05:45:09;28.60;40.60
21275;DHT22;36472;52.170;20.884;2023-12-20T05:47:40;28.40;40.60
21275;DHT22;36472;52.170;20.884;2023-12-20T05:50:09;28.50;40.80
21275;DHT22;36472;52.170;20.884;2023-12-20T05:52:38;28.60;40.80
21275;DHT22;36472;52.170;20.884;2023-12-20T05:55:07;28.50;40.70
21275;DHT22;36472;52.170;20.884;2023-12-20T05:57:36;28.60;40.70
21275;DHT22;36472;52.170;20.884;2023-12-20T06:00:06;28.60;40.80
21275;DHT22;36472;52.170;20.884;2023-12-20T06:02:41;28.60;40.70
21275;DHT22;36472;52.170;20.884;2023-12-20T06:05:11;28.60;40.70
21275;DHT22;36472;52.170;20.884;2023-12-20T06:07:41;28.60;40.70
21275;DHT22;36472;52.170;20.884;2023-12-20T06:10:10;28.60;40.60
21275;DHT22;36472;52.170;20.884;2023-12-20T06:12:39;28.60;40.50
21275;DHT22;36472;52.170;20.884;2023-12-20T06:15:09;28.60;40.60
21275;DHT22;36472;52.170;20.884;2023-12-20T06:17:38;28.60;40.70
21275;DHT22;36472;52.170;20.884;2023-12-20T06:20:10;28.60;40.60
21275;DHT22;36472;52.170;20.884;2023-12-20T06:22:39;28.50;40.60
21275;DHT22;36472;52.170;20.884;2023-12-20T06:25:08;28.60;40.60
21275;DHT22;36472;52.170;20.884;2023-12-20T06:27:38;28.60;40.60
21275;DHT22;36472;52.170;20.884;2023-12-20T06:30:08;28.50;40.60
21275;DHT22;36472;52.170;20.884;2023-12-20T06:32:37;28.60;40.70
21275;DHT22;36472;52.170;20.884;2023-12-20T06:35:09;28.50;40.60
21275;DHT22;36472;52.170;20.884;2023-12-20T06:37:38;28.60;40.80
21275;DHT22;36472;52.170;20.884;2023-12-20T06:40:10;28.60;40.70
21275;DHT22;36472;52.170;20.884;2023-12-20T06:42:46;28.60;40.50
21275;DHT22;36472;52.170;20.884;2023-12-20T06:45:31;28.60;40.50
21275;DHT22;36472;52.170;20.884;2023-12-20T06:48:00;28.60;40.50
21275;DHT22;36472;52.170;20.884;2023-12-20T06:50:31;28.60;40.60
21275;DHT22;36472;52.170;20.884;2023-12-20T06:53:00;28.70;40.70
21275;DHT22;36472;52.170;20.884;2023-12-20T06:55:35;28.70;40.60
21275;DHT22;36472;52.170;20.884;2023-12-20T06:58:05;28.70;40.50
21275;DHT22;36472;52.170;20.884;2023-12-20T07:00:34;28.70;40.40
21275;DHT22;36472;52.170;20.884;2023-12-20T07:03:04;28.70;40.40
21275;DHT22;36472;52.170;20.884;2023-12-20T07:05:34;28.70;40.40
21275;DHT22;36472;52.170;20.884;2023-12-20T07:08:04;28.70;40.20
21275;DHT22;36472;52.170;20.884;2023-12-20T07:10:34;28.70;40.40
21275;DHT22;36472;52.170;20.884;2023-12-20T07:13:03;28.70;40.40
21275;DHT22;36472;52.170;20.884;2023-12-20T07:15:32;28.70;40.40
21275;DHT22;36472;52.170;20.884;2023-12-20T07:18:01;28.70;40.60
21275;DHT22;36472;52.170;20.884;2023-12-20T07:20:30;28.70;40.60
21275;DHT22;36472;52.170;20.884;2023-12-20T07:23:00;28.70;40.50
21275;DHT22;36472;52.170;20.884;2023-12-20T07:25:29;28.70;40.50
21275;DHT22;36472;52.170;20.884;2023-12-20T07:28:00;28.70;40.60
21275;DHT22;36472;52.170;20.884;2023-12-20T07:30:29;28.70;40.60
21275;DHT22;36472;52.170;20.884;2023-12-20T07:32:59;28.70;40.60
21275;DHT22;36472;52.170;20.884;2023-12-20T07:35:28;28.70;40.50
21275;DHT22;36472;52.170;20.884;2023-12-20T07:37:59;28.70;40.50
21275;DHT22;36472;52.170;20.884;2023-12-20T07:40:29;28.70;40.50
21275;DHT22;36472;52.170;20.884;2023-12-20T07:42:59;28.50;40.40
21275;DHT22;36472;52.170;20.884;2023-12-20T07:49:59;28.50;40.60
21275;DHT22;36472;52.170;20.884;2023-12-20T07:52:29;28.50;40.90
21275;DHT22;36472;52.170;20.884;2023-12-20T07:55:00;28.40;40.80
21275;DHT22;36472;52.170;20.884;2023-12-20T07:57:29;28.40;40.80
21275;DHT22;36472;52.170;20.884;2023-12-20T07:59:59;28.30;41.40
21275;DHT22;36472;52.170;20.884;2023-12-20T08:02:30;28.30;40.60
21275;DHT22;36472;52.170;20.884;2023-12-20T08:05:00;28.30;40.90
21275;DHT22;36472;52.170;20.884;2023-12-20T08:07:28;28.30;40.80
21275;DHT22;36472;52.170;20.884;2023-12-20T08:09:59;28.10;40.50
21275;DHT22;36472;52.170;20.884;2023-12-20T08:12:28;28.20;41.00
21275;DHT22;36472;52.170;20.884;2023-12-20T08:14:57;28.30;40.90
21275;DHT22;36472;52.170;20.884;2023-12-20T08:17:26;28.40;40.90
21275;DHT22;36472;52.170;20.884;2023-12-20T08:19:56;28.50;40.80
21275;DHT22;36472;52.170;20.884;2023-12-20T08:22:25;28.50;40.80
21275;DHT22;36472;52.170;20.884;2023-12-20T08:24:54;28.50;40.70
21275;DHT22;36472;52.170;20.884;2023-12-20T08:27:24;28.50;40.70
21275;DHT22;36472;52.170;20.884;2023-12-20T08:29:53;28.50;40.70
21275;DHT22;36472;52.170;20.884;2023-12-20T08:32:25;28.60;40.60
21275;DHT22;36472;52.170;20.884;2023-12-20T08:34:55;28.50;40.60
21275;DHT22;36472;52.170;20.884;2023-12-20T08:37:24;28.40;40.70
21275;DHT22;36472;52.170;20.884;2023-12-20T08:39:53;28.50;40.60
21275;DHT22;36472;52.170;20.884;2023-12-20T08:42:23;28.50;40.70
21275;DHT22;36472;52.170;20.884;2023-12-20T08:44:58;28.60;40.90
21275;DHT22;36472;52.170;20.884;2023-12-20T08:47:27;28.50;40.70
21275;DHT22;36472;52.170;20.884;2023-12-20T08:49:58;28.60;40.80
21275;DHT22;36472;52.170;20.884;2023-12-20T08:52:28;28.30;40.40
21275;DHT22;36472;52.170;20.884;2023-12-20T08:54:57;28.30;40.80
21275;DHT22;36472;52.170;20.884;2023-12-20T08:57:27;28.50;40.90
21275;DHT22;36472;52.170;20.884;2023-12-20T08:59:57;28.50;40.80
21275;DHT22;36472;52.170;20.884;2023-12-20T09:06:59;28.50;40.80
21275;DHT22;36472;52.170;20.884;2023-12-20T09:09:29;28.50;40.80
21275;DHT22;36472;52.170;20.884;2023-12-20T09:11:59;28.60;40.90
21275;DHT22;36472;52.170;20.884;2023-12-20T09:14:30;28.60;41.00
21275;DHT22;36472;52.170;20.884;2023-12-20T09:16:59;28.60;40.90
21275;DHT22;36472;52.170;20.884;2023-12-20T09:19:28;28.50;40.70
21275;DHT22;36472;52.170;20.884;2023-12-20T09:21:57;28.60;40.90
21275;DHT22;36472;52.170;20.884;2023-12-20T09:24:26;28.60;40.80
21275;DHT22;36472;52.170;20.884;2023-12-20T09:26:55;28.50;40.60
21275;DHT22;36472;52.170;20.884;2023-12-20T09:29:24;28.60;40.90
21275;DHT22;36472;52.170;20.884;2023-12-20T09:31:55;28.50;40.60
21275;DHT22;36472;52.170;20.884;2023-12-20T09:34:25;28.60;40.80
21275;DHT22;36472;52.170;20.884;2023-12-20T09:36:55;28.70;41.00
21275;DHT22;36472;52.170;20.884;2023-12-20T09:39:23;28.70;40.80
21275;DHT22;36472;52.170;20.884;2023-12-20T09:42:00;28.70;40.80
21275;DHT22;36472;52.170;20.884;2023-12-20T09:44:30;28.70;40.60
21275;DHT22;36472;52.170;20.884;2023-12-20T09:47:02;28.60;40.50
21275;DHT22;36472;52.170;20.884;2023-12-20T09:49:33;28.50;40.70
21275;DHT22;36472;52.170;20.884;2023-12-20T09:52:05;28.60;40.80
21275;DHT22;36472;52.170;20.884;2023-12-20T09:54:36;28.60;40.80
21275;DHT22;36472;52.170;20.884;2023-12-20T09:57:05;28.60;40.70
21275;DHT22;36472;52.170;20.884;2023-12-20T09:59:34;28.60;40.70
21275;DHT22;36472;52.170;20.884;2023-12-20T10:02:10;28.50;40.70
21275;DHT22;36472;52.170;20.884;2023-12-20T10:04:46;28.50;40.80
21275;DHT22;36472;52.170;20.884;2023-12-20T10:07:16;28.40;40.60
21275;DHT22;36472;52.170;20.884;2023-12-20T10:09:46;28.50;40.90
21275;DHT22;36472;52.170;20.884;2023-12-20T10:12:16;28.40;40.60
21275;DHT22;36472;52.170;20.884;2023-12-20T10:14:45;28.40;40.90
21275;DHT22;36472;52.170;20.884;2023-12-20T10:17:16;28.50;41.10
21275;DHT22;36472;52.170;20.884;2023-12-20T10:19:44;28.50;41.10
21275;DHT22;36472;52.170;20.884;2023-12-20T10:22:14;28.40;41.00
21275;DHT22;36472;52.170;20.884;2023-12-20T10:24:45;28.40;40.90
21275;DHT22;36472;52.170;20.884;2023-12-20T10:27:18;28.30;40.90
21275;DHT22;36472;52.170;20.884;2023-12-20T10:29:47;28.40;41.80
21275;DHT22;36472;52.170;20.884;2023-12-20T10:32:25;28.40;41.00
21275;DHT22;36472;52.170;20.884;2023-12-20T10:34:56;28.30;41.00
21275;DHT22;36472;52.170;20.884;2023-12-20T10:37:25;28.40;40.90
21275;DHT22;36472;52.170;20.884;2023-12-20T10:39:55;28.40;41.00
21275;DHT22;36472;52.170;20.884;2023-12-20T10:42:26;28.30;40.90
21275;DHT22;36472;52.170;20.884;2023-12-20T10:44:56;28.40;41.10
21275;DHT22;36472;52.170;20.884;2023-12-20T10:47:30;28.40;41.00
21275;DHT22;36472;52.170;20.884;2023-12-20T10:50:01;28.50;41.10
21275;DHT22;36472;52.170;20.884;2023-12-20T10:52:34;28.50;41.00
21275;DHT22;36472;52.170;20.884;2023-12-20T10:55:06;28.60;41.10
21275;DHT22;36472;52.170;20.884;2023-12-20T10:57:36;28.60;41.80
21275;DHT22;36472;52.170;20.884;2023-12-20T11:00:09;28.50;41.10
21275;DHT22;36472;52.170;20.884;2023-12-20T11:02:44;28.50;41.20
21275;DHT22;36472;52.170;20.884;2023-12-20T11:05:22;28.50;41.00
21275;DHT22;36472;52.170;20.884;2023-12-20T11:08:02;28.40;40.90
21275;DHT22;36472;52.170;20.884;2023-12-20T11:10:42;28.40;41.10
21275;DHT22;36472;52.170;20.884;2023-12-20T11:13:22;28.40;41.00
21275;DHT22;36472;52.170;20.884;2023-12-20T11:15:57;28.50;41.10
21275;DHT22;36472;52.170;20.884;2023-12-20T11:18:31;28.50;41.20
21275;DHT22;36472;52.170;20.884;2023-12-20T11:21:01;28.50;41.10
21275;DHT22;36472;52.170;20.884;2023-12-20T11:23:32;28.50;41.20
21275;DHT22;36472;52.170;20.884;2023-12-20T11:26:03;28.50;41.00
21275;DHT22;36472;52.170;20.884;2023-12-20T11:28:32;28.60;40.90
21275;DHT22;36472;52.170;20.884;2023-12-20T11:31:02;28.60;40.90
21275;DHT22;36472;52.170;20.884;2023-12-20T11:33:36;28.60;40.80
21275;DHT22;36472;52.170;20.884;2023-12-20T11:36:13;28.60;40.90
21275;DHT22;36472;52.170;20.884;2023-12-20T11:38:56;28.60;40.80
21275;DHT22;36472;52.170;20.884;2023-12-20T11:41:27;28.60;41.00
21275;DHT22;36472;52.170;20.884;2023-12-20T11:43:56;28.60;41.00
21275;DHT22;36472;52.170;20.884;2023-12-20T11:46:28;28.50;40.80
21275;DHT22;36472;52.170;20.884;2023-12-20T11:49:00;28.60;40.90
21275;DHT22;36472;52.170;20.884;2023-12-20T11:51:30;28.50;41.00
21275;DHT22;36472;52.170;20.884;2023-12-20T11:53:59;28.50;41.00
21275;DHT22;36472;52.170;20.884;2023-12-20T11:56:28;28.40;40.90
21275;DHT22;36472;52.170;20.884;2023-12-20T11:58:57;28.50;41.20
21275;DHT22;36472;52.170;20.884;2023-12-20T12:01:49;28.20;40.80
21275;DHT22;36472;52.170;20.884;2023-12-20T12:04:20;28.00;40.90
21275;DHT22;36472;52.170;20.884;2023-12-20T12:06:49;28.00;41.20
21275;DHT22;36472;52.170;20.884;2023-12-20T12:09:19;27.80;40.90
21275;DHT22;36472;52.170;20.884;2023-12-20T12:11:48;27.80;41.30
21275;DHT22;36472;52.170;20.884;2023-12-20T12:14:17;27.70;41.00
21275;DHT22;36472;52.170;20.884;2023-12-20T12:16:48;27.60;41.30
21275;DHT22;36472;52.170;20.884;2023-12-20T12:19:23;27.70;41.50
21275;DHT22;36472;52.170;20.884;2023-12-20T12:22:04;27.80;41.50
21275;DHT22;36472;52.170;20.884;2023-12-20T12:24:35;27.80;41.30
21275;DHT22;36472;52.170;20.884;2023-12-20T12:27:06;27.70;41.00
21275;DHT22;36472;52.170;20.884;2023-12-20T12:29:36;27.90;41.50
21275;DHT22;36472;52.170;20.884;2023-12-20T12:32:05;27.70;41.20
21275;DHT22;36472;52.170;20.884;2023-12-20T12:34:37;27.90;41.30
21275;DHT22;36472;52.170;20.884;2023-12-20T12:37:06;27.90;41.10
21275;DHT22;36472;52.170;20.884;2023-12-20T12:39:36;27.30;40.40
21275;DHT22;36472;52.170;20.884;2023-12-20T12:42:05;27.50;41.40
21275;DHT22;36472;52.170;20.884;2023-12-20T12:44:34;27.50;41.30
21275;DHT22;36472;52.170;20.884;2023-12-20T12:47:03;27.50;41.30
21275;DHT22;36472;52.170;20.884;2023-12-20T12:49:33;27.50;41.20
21275;DHT22;36472;52.170;20.884;2023-12-20T12:52:04;27.60;41.30
21275;DHT22;36472;52.170;20.884;2023-12-20T12:54:33;27.70;41.20
21275;DHT22;36472;52.170;20.884;2023-12-20T12:57:04;27.60;41.00
21275;DHT22;36472;52.170;20.884;2023-12-20T12:59:33;27.40;40.90
21275;DHT22;36472;52.170;20.884;2023-12-20T13:02:07;27.40;41.20
21275;DHT22;36472;52.170;20.884;2023-12-20T13:09:11;27.50;41.00
21275;DHT22;36472;52.170;20.884;2023-12-20T13:16:12;27.50;40.60
21275;DHT22;36472;52.170;20.884;2023-12-20T13:18:41;27.50;40.70
21275;DHT22;36472;52.170;20.884;2023-12-20T13:25:45;27.80;40.90
21275;DHT22;36472;52.170;20.884;2023-12-20T13:37:23;27.40;40.80
21275;DHT22;36472;52.170;20.884;2023-12-20T13:44:26;27.40;40.70
21275;DHT22;36472;52.170;20.884;2023-12-20T13:46:55;27.50;40.40
21275;DHT22;36472;52.170;20.884;2023-12-20T13:49:24;27.60;41.00
21275;DHT22;36472;52.170;20.884;2023-12-20T13:51:54;27.70;40.30
21275;DHT22;36472;52.170;20.884;2023-12-20T13:54:23;27.60;40.30
21275;DHT22;36472;52.170;20.884;2023-12-20T13:56:53;27.70;40.20
21275;DHT22;36472;52.170;20.884;2023-12-20T13:59:40;27.80;40.40
21275;DHT22;36472;52.170;20.884;2023-12-20T14:02:09;27.90;40.50
21275;DHT22;36472;52.170;20.884;2023-12-20T14:04:38;28.00;40.40
21275;DHT22;36472;52.170;20.884;2023-12-20T14:07:10;28.10;40.00
21275;DHT22;36472;52.170;20.884;2023-12-20T14:09:40;28.10;39.90
21275;DHT22;36472;52.170;20.884;2023-12-20T14:12:14;28.10;39.60
21275;DHT22;36472;52.170;20.884;2023-12-20T14:14:46;28.00;39.70
21275;DHT22;36472;52.170;20.884;2023-12-20T14:17:15;28.00;39.70
21275;DHT22;36472;52.170;20.884;2023-12-20T14:19:44;28.00;39.30
21275;DHT22;36472;52.170;20.884;2023-12-20T14:22:13;28.10;39.60
21275;DHT22;36472;52.170;20.884;2023-12-20T14:24:44;28.00;39.50
21275;DHT22;36472;52.170;20.884;2023-12-20T14:27:14;27.70;39.10
21275;DHT22;36472;52.170;20.884;2023-12-20T14:29:43;27.80;39.60
21275;DHT22;36472;52.170;20.884;2023-12-20T14:32:13;27.60;39.00
21275;DHT22;36472;52.170;20.884;2023-12-20T14:39:16;27.50;39.10
21275;DHT22;36472;52.170;20.884;2023-12-20T14:41:45;27.80;39.70
21275;DHT22;36472;52.170;20.884;2023-12-20T14:44:14;27.80;39.10
21275;DHT22;36472;52.170;20.884;2023-12-20T14:46:44;27.60;39.10
21275;DHT22;36472;52.170;20.884;2023-12-20T14:49:14;27.70;38.90
21275;DHT22;36472;52.170;20.884;2023-12-20T14:51:44;27.70;39.00
21275;DHT22;36472;52.170;20.884;2023-12-20T14:54:15;27.70;39.30
21275;DHT22;36472;52.170;20.884;2023-12-20T14:56:44;27.80;39.20
21275;DHT22;36472;52.170;20.884;2023-12-20T14:59:13;27.80;39.10
21275;DHT22;36472;52.170;20.884;2023-12-20T15:01:43;27.80;39.00
21275;DHT22;36472;52.170;20.884;2023-12-20T15:04:14;27.80;38.80
21275;DHT22;36472;52.170;20.884;2023-12-20T15:06:43;27.90;38.80
21275;DHT22;36472;52.170;20.884;2023-12-20T15:09:13;27.80;38.50
21275;DHT22;36472;52.170;20.884;2023-12-20T15:11:41;27.60;38.50
21275;DHT22;36472;52.170;20.884;2023-12-20T15:14:11;27.60;38.70
21275;DHT22;36472;52.170;20.884;2023-12-20T15:16:42;27.50;38.90
21275;DHT22;36472;52.170;20.884;2023-12-20T15:19:11;27.50;38.70
21275;DHT22;36472;52.170;20.884;2023-12-20T15:21:43;27.40;38.70
21275;DHT22;36472;52.170;20.884;2023-12-20T15:24:14;27.40;38.90
21275;DHT22;36472;52.170;20.884;2023-12-20T15:26:47;27.50;39.00
21275;DHT22;36472;52.170;20.884;2023-12-20T15:29:16;27.50;38.70
21275;DHT22;36472;52.170;20.884;2023-12-20T15:31:46;27.70;38.70
21275;DHT22;36472;52.170;20.884;2023-12-20T15:34:17;27.60;38.40
21275;DHT22;36472;52.170;20.884;2023-12-20T15:36:46;27.60;38.80
21275;DHT22;36472;52.170;20.884;2023-12-20T15:39:15;27.40;38.70
21275;DHT22;36472;52.170;20.884;2023-12-20T15:41:44;27.50;39.30
21275;DHT22;36472;52.170;20.884;2023-12-20T15:44:13;27.40;38.70
21275;DHT22;36472;52.170;20.884;2023-12-20T15:46:43;27.50;38.60
21275;DHT22;36472;52.170;20.884;2023-12-20T15:49:12;27.50;38.30
21275;DHT22;36472;52.170;20.884;2023-12-20T15:51:44;27.40;38.20
21275;DHT22;36472;52.170;20.884;2023-12-20T15:54:14;27.40;38.10
21275;DHT22;36472;52.170;20.884;2023-12-20T15:56:42;27.40;38.20
21275;DHT22;36472;52.170;20.884;2023-12-20T15:59:12;27.40;38.40
21275;DHT22;36472;52.170;20.884;2023-12-20T16:06:14;27.20;38.30
21275;DHT22;36472;52.170;20.884;2023-12-20T16:08:45;27.10;38.50
21275;DHT22;36472;52.170;20.884;2023-12-20T16:11:14;27.10;38.80
21275;DHT22;36472;52.170;20.884;2023-12-20T16:13:43;27.30;38.90
21275;DHT22;36472;52.170;20.884;2023-12-20T16:16:12;27.20;38.30
21275;DHT22;36472;52.170;20.884;2023-12-20T16:18:42;27.20;38.30
21275;DHT22;36472;52.170;20.884;2023-12-20T16:21:11;27.30;38.50
21275;DHT22;36472;52.170;20.884;2023-12-20T16:23:40;27.30;38.30